Airfield :







YOU CAN JOIN US ON...

 
LOGIN :

Register | Disclaimer

   EN    FR    IT 

 









Legend :    VFR   Marginal VFR   IFR   Intensive IFR   Very Intensive IFR
Visi :
Ceiling :
>= 8 km
>= 3000ft
5 to 8 km
1000 to 3000 ft
1500m to 5 km
500 to 1000 ft
800 to 1500m
200 to 500 ft
< 800m
< 200 ft
Symbols :   Thunderstorms  Fog  Heavy snow  Heavy precipitations  Wind > 20 kt






- Airport Elevation : 241 ft
- IATA code : CEF


KCEF - Westover ARB/Metropolitan

CURRENT METAR :
  • 250255Z 32008KT 10SM CLR 22/06 A2980 RMK AO2A SLP096 T02160059 52019

EXPIRED METARs :
  • 250155Z 33006KT 10SM CLR 22/07 A2978 RMK AO2A SLP089 T02210071
  • 250055Z 31011KT 10SM CLR 23/07 A2976 RMK AO2A SLP082 T02300067
  • 242355Z 32011KT 10SM CLR 25/07 A2974 RMK AO2A SLP076 T02510072 10303 20251 52013
  • 242255Z 32010KT 10SM CLR 28/08 A2972 RMK AO2A SLP069 T02790082

TAF TAF KCEF
Valid from the 25 at 00:00 until the 26 at 06:00 UTC


250007Z 2500/2606 32010KT 9999 SCT070 510105 QNH2972INS
TEMPO 2500/2501 33015G25KT 520006
BECMG 2501/2502 VRB06KT 9999 SKC QNH2977INS WND 28012KT AFT 2515
BECMG 2601/2602 28012KT 9999 FEW050 BKN220 QNH2980INS TX28/2520Z TN10/2509Z LAST NO AMDS AFT 2503 NEXT 2512
KZBW FIR / North America



MET'MAP, your aeronautical weather chart ! - Copyright ORBIFLY December 2007 - Disclaimer

ORBIFLY MET'MAP TEAM :

Programming & Development : Alexandra Zaïnal
Original concept : Baudouin d'Aumeries
Technical & hardware support : Manuel Goepfert
Assistance : Marc-Olivier Méhu




SOURCES & CREDITS :

   NOAA